Time;durP1;ratioP1;P1;durP2;ratioP2;P2;SDS_P1;SDS_P2;PMS_P1;PMS_P2;Temp;Humidity;BMP_temperature;BMP_pressure;BME280_temperature;BME280_humidity;BME280_pressure;Samples;Min_cycle;Max_cycle;Signal;HPM_P1;HPM_P2
2023/03/07 00:01:01;662153.00;2.21;1141.67;70101.00;0.23;121.93;;;;;7.40;1.00;;;;;;2288240;60;1442;-86
2023/03/07 00:03:28;179439.00;0.60;310.52;0.00;0.00;0.62;;;;;7.50;1.00;;;;;;2288387;60;1035;-86
2023/03/07 00:06:03;176286.00;0.59;305.09;0.00;0.00;0.62;;;;;7.50;1.00;;;;;;2288425;60;943;-87
2023/03/07 00:08:30;252544.00;0.84;436.33;0.00;0.00;0.62;;;;;7.30;1.00;;;;;;2289091;60;1984;-86
2023/03/07 00:11:01;259120.00;0.86;447.64;0.00;0.00;0.62;;;;;7.20;1.00;;;;;;2289007;60;1662;-86
2023/03/07 00:13:30;195710.00;0.65;338.54;0.00;0.00;0.62;;;;;7.20;1.00;;;;;;2289081;60;1026;-87
2023/03/07 00:16:02;217284.00;0.72;375.67;0.00;0.00;0.62;;;;;7.20;1.00;;;;;;2289007;60;1552;-86
2023/03/07 00:18:29;254842.00;0.85;440.28;0.00;0.00;0.62;;;;;7.10;1.00;;;;;;2289025;60;1619;-88
2023/03/07 00:21:00;332397.00;1.11;573.61;0.00;0.00;0.62;;;;;7.20;1.00;;;;;;2289052;60;1229;-86
2023/03/07 00:23:27;222849.00;0.74;385.25;0.00;0.00;0.62;;;;;7.40;1.00;;;;;;2289100;60;1037;-87
2023/03/07 00:25:59;343052.00;1.14;591.92;0.00;0.00;0.62;;;;;7.40;1.00;;;;;;2289043;60;1082;-86
2023/03/07 00:28:25;198860.00;0.66;343.96;0.00;0.00;0.62;;;;;7.40;1.00;;;;;;2288990;60;1986;-86
2023/03/07 00:30:52;212727.00;0.71;367.83;0.00;0.00;0.62;;;;;7.60;1.00;;;;;;2289066;60;1315;-87
2023/03/07 00:33:21;151577.00;0.51;262.53;0.00;0.00;0.62;;;;;7.60;1.00;;;;;;2289010;60;1127;-88
2023/03/07 00:35:55;414448.00;1.38;714.64;8084.00;0.03;14.63;;;;;7.70;1.00;;;;;;2289007;60;1069;-86
2023/03/07 00:38:22;242115.00;0.81;418.39;0.00;0.00;0.62;;;;;7.70;1.00;;;;;;2288939;60;1805;-87
2023/03/07 00:40:57;345754.00;1.15;596.56;0.00;0.00;0.62;;;;;7.60;1.00;;;;;;2288969;60;1410;-86
2023/03/07 00:43:23;155464.00;0.52;269.22;0.00;0.00;0.62;;;;;7.50;1.00;;;;;;2288987;60;2216;-87
2023/03/07 00:45:50;249274.00;0.83;430.70;0.00;0.00;0.62;;;;;7.60;1.00;;;;;;2288968;60;1042;-86
2023/03/07 00:48:17;185905.00;0.62;321.66;0.00;0.00;0.62;;;;;7.70;1.00;;;;;;2288890;60;1915;-86
2023/03/07 00:50:46;195056.00;0.65;337.41;0.00;0.00;0.62;;;;;7.60;1.00;;;;;;2288957;60;1497;-85
2023/03/07 00:53:13;167455.00;0.56;289.88;0.00;0.00;0.62;;;;;7.70;1.00;;;;;;2288969;60;1066;-87
2023/03/07 00:55:40;306420.00;1.02;528.96;0.00;0.00;0.62;;;;;7.60;1.00;;;;;;2288993;60;910;-85
2023/03/07 00:58:07;206005.00;0.69;356.26;0.00;0.00;0.62;;;;;7.50;1.00;;;;;;2288885;60;1034;-86
2023/03/07 01:00:34;290446.00;0.97;501.50;0.00;0.00;0.62;;;;;7.70;1.00;;;;;;2288941;60;1386;-87
2023/03/07 01:03:02;182898.00;0.61;316.48;0.00;0.00;0.62;;;;;7.90;1.00;;;;;;2288938;60;1000;-86
2023/03/07 01:05:29;383529.00;1.28;661.49;0.00;0.00;0.62;;;;;8.00;1.00;;;;;;2288654;60;1103;-87
2023/03/07 01:07:57;145315.00;0.48;251.73;0.00;0.00;0.62;;;;;8.10;1.00;;;;;;2288848;60;1998;-86
2023/03/07 01:10:25;203603.00;0.68;352.13;0.00;0.00;0.62;;;;;8.10;1.00;;;;;;2288900;60;1282;-87
2023/03/07 01:12:52;117739.00;0.39;204.18;0.00;0.00;0.62;;;;;8.10;1.00;;;;;;2288870;60;1631;-87
2023/03/07 01:15:19;143600.00;0.48;248.78;0.00;0.00;0.62;;;;;7.90;1.00;;;;;;2288892;60;1017;-86
2023/03/07 01:17:46;224698.00;0.75;388.43;0.00;0.00;0.62;;;;;7.70;1.00;;;;;;2288748;60;905;-87
2023/03/07 01:20:13;204630.00;0.68;353.89;0.00;0.00;0.62;;;;;7.70;1.00;;;;;;2288900;60;1423;-87
2023/03/07 01:22:40;156413.00;0.52;270.86;0.00;0.00;0.62;;;;;7.80;1.00;;;;;;2288867;60;1059;-87
2023/03/07 01:25:09;259138.00;0.86;447.67;0.00;0.00;0.62;;;;;7.90;1.00;;;;;;2288866;60;1114;-88
2023/03/07 01:27:35;89621.00;0.30;155.65;0.00;0.00;0.62;;;;;7.90;1.00;;;;;;2288881;60;1025;-87
2023/03/07 01:30:02;226636.00;0.76;391.76;0.00;0.00;0.62;;;;;7.80;1.00;;;;;;2288827;60;2010;-87
2023/03/07 01:32:29;207919.00;0.69;359.55;0.00;0.00;0.62;;;;;7.90;1.00;;;;;;2288812;60;1199;-86
2023/03/07 01:34:56;387507.00;1.29;668.33;0.00;0.00;0.62;;;;;7.70;1.00;;;;;;2288854;60;1002;-87
2023/03/07 01:37:23;201947.00;0.67;349.28;0.00;0.00;0.62;;;;;7.60;1.00;;;;;;2288840;60;992;-86
2023/03/07 01:39:51;119679.00;0.40;207.53;0.00;0.00;0.62;;;;;7.70;1.00;;;;;;2288706;60;2194;-86
2023/03/07 01:42:20;252195.00;0.84;435.73;0.00;0.00;0.62;;;;;7.80;1.00;;;;;;2288812;60;1042;-86
2023/03/07 01:45:02;322176.00;1.07;556.04;29725.00;0.10;52.11;;;;;7.90;1.00;;;;;;2288831;60;1012;-86
2023/03/07 01:47:29;243726.00;0.81;421.16;0.00;0.00;0.62;;;;;7.70;1.00;;;;;;2288789;60;1003;-86
2023/03/07 01:49:59;385579.00;1.29;665.02;22190.00;0.07;39.06;;;;;7.80;1.00;;;;;;2288673;60;1921;-86
2023/03/07 01:52:32;248905.00;0.83;430.07;0.00;0.00;0.62;;;;;7.70;1.00;;;;;;2288747;60;955;-86
2023/03/07 01:55:05;511375.00;1.70;881.41;54504.00;0.18;94.97;;;;;7.40;1.00;;;;;;2288786;60;967;-85
2023/03/07 01:57:37;265950.00;0.89;459.38;0.00;0.00;0.62;;;;;7.00;1.00;;;;;;2288677;60;1946;-87
2023/03/07 02:00:09;268745.00;0.90;464.19;0.00;0.00;0.62;;;;;6.90;1.00;;;;;;2288718;60;1565;-86
2023/03/07 02:02:39;199911.00;0.67;345.77;0.00;0.00;0.62;;;;;6.90;1.00;;;;;;2288725;60;1285;-85
2023/03/07 02:05:11;251724.00;0.84;434.92;0.00;0.00;0.62;;;;;6.90;1.00;;;;;;2288780;60;1163;-86
2023/03/07 02:07:41;173718.00;0.58;300.67;0.00;0.00;0.62;;;;;6.90;1.00;;;;;;2288751;60;1038;-86
2023/03/07 02:10:12;280422.00;0.93;484.26;0.00;0.00;0.62;;;;;6.90;1.00;;;;;;2288654;60;1926;-85
2023/03/07 02:12:41;185359.00;0.62;320.72;0.00;0.00;0.62;;;;;6.90;1.00;;;;;;2288737;60;1096;-86
2023/03/07 02:15:10;378575.00;1.26;652.98;19108.00;0.06;33.73;;;;;7.20;1.00;;;;;;2288687;60;1043;-85
2023/03/07 02:17:38;288689.00;0.96;498.48;0.00;0.00;0.62;;;;;7.10;1.00;;;;;;2288672;60;1058;-88
2023/03/07 02:20:24;186245.00;0.62;322.24;0.00;0.00;0.62;;;;;7.00;1.00;;;;;;2288653;60;1389;-87
2023/03/07 02:22:51;251729.00;0.84;434.92;0.00;0.00;0.62;;;;;7.00;1.00;;;;;;2288724;60;961;-87
2023/03/07 02:25:24;306175.00;1.02;528.53;0.00;0.00;0.62;;;;;7.00;1.00;;;;;;2288587;60;1567;-86
2023/03/07 02:27:55;95906.00;0.32;166.50;0.00;0.00;0.62;;;;;7.10;1.00;;;;;;2288695;60;1125;-87
2023/03/07 02:30:22;338551.00;1.13;584.18;0.00;0.00;0.62;;;;;7.20;1.00;;;;;;2288417;60;2006;-86
2023/03/07 02:32:49;248110.00;0.83;428.70;0.00;0.00;0.62;;;;;7.30;1.00;;;;;;2288686;60;993;-87
2023/03/07 02:35:18;312525.00;1.04;539.45;0.00;0.00;0.62;;;;;7.30;1.00;;;;;;2288673;60;1039;-85
2023/03/07 02:37:48;211744.00;0.71;366.14;0.00;0.00;0.62;;;;;7.30;1.00;;;;;;2288625;60;1089;-87
2023/03/07 02:40:20;285227.00;0.95;492.52;0.00;0.00;0.62;;;;;7.40;1.00;;;;;;2288609;60;1304;-85
2023/03/07 02:42:48;241680.00;0.81;417.64;0.00;0.00;0.62;;;;;7.20;1.00;;;;;;2288630;60;1065;-86
2023/03/07 02:45:18;199828.00;0.67;345.63;0.00;0.00;0.62;;;;;7.00;1.00;;;;;;2288566;60;1070;-86
2023/03/07 02:47:46;426347.00;1.42;735.10;29228.00;0.10;51.25;;;;;7.10;1.00;;;;;;2288597;60;2349;-86
2023/03/07 02:50:15;255629.00;0.85;441.63;0.00;0.00;0.62;;;;;7.10;1.00;;;;;;2288497;60;1979;-87
2023/03/07 02:52:42;282526.00;0.94;487.88;16678.00;0.06;29.52;;;;;7.40;1.00;;;;;;2288602;60;986;-86
2023/03/07 02:55:09;254700.00;0.85;440.03;0.00;0.00;0.62;;;;;7.30;1.00;;;;;;2288534;60;1600;-87
2023/03/07 02:57:36;246268.00;0.82;425.53;0.00;0.00;0.62;;;;;7.00;1.00;;;;;;2288573;60;1022;-87
2023/03/07 03:00:05;248470.00;0.83;429.32;0.00;0.00;0.62;;;;;6.90;1.00;;;;;;2288546;60;1288;-87
2023/03/07 03:02:33;250204.00;0.83;432.30;0.00;0.00;0.62;;;;;7.00;1.00;;;;;;2288575;60;974;-87
2023/03/07 03:05:00;217026.00;0.72;375.23;0.00;0.00;0.62;;;;;7.00;1.00;;;;;;2288490;60;981;-87
2023/03/07 03:07:27;209174.00;0.70;361.71;13584.00;0.05;24.16;;;;;7.20;1.00;;;;;;2288542;60;913;-87
2023/03/07 03:09:54;255040.00;0.85;440.62;0.00;0.00;0.62;;;;;7.20;1.00;;;;;;2288510;60;1999;-87
2023/03/07 03:12:21;237031.00;0.79;409.64;0.00;0.00;0.62;;;;;7.20;1.00;;;;;;2288543;60;1086;-88
2023/03/07 03:14:48;374441.00;1.25;645.87;0.00;0.00;0.62;;;;;7.40;1.00;;;;;;2288531;60;1064;-87
2023/03/07 03:17:15;217921.00;0.73;376.77;20416.00;0.07;35.99;;;;;7.30;1.00;;;;;;2288513;60;1117;-87
2023/03/07 03:19:43;198100.00;0.66;342.65;0.00;0.00;0.62;;;;;7.20;1.00;;;;;;2288505;60;1269;-87
2023/03/07 03:22:11;205748.00;0.69;355.82;0.00;0.00;0.62;;;;;7.10;1.00;;;;;;2288484;60;1164;-87
2023/03/07 03:24:39;169239.00;0.56;292.96;0.00;0.00;0.62;;;;;6.90;1.00;;;;;;2288442;60;1724;-88
2023/03/07 03:27:06;313127.00;1.04;540.48;0.00;0.00;0.62;;;;;6.90;1.00;;;;;;2288434;60;2065;-86
2023/03/07 03:29:33;347707.00;1.16;599.92;0.00;0.00;0.62;;;;;6.80;1.00;;;;;;2288425;60;2005;-86
2023/03/07 03:32:00;266294.00;0.89;459.97;0.00;0.00;0.62;;;;;6.90;1.00;;;;;;2288448;60;1095;-87
2023/03/07 03:34:27;382617.00;1.28;659.92;19009.00;0.06;33.55;;;;;6.70;1.00;;;;;;2288446;60;1631;-87
2023/03/07 03:36:55;225776.00;0.75;390.28;0.00;0.00;0.62;;;;;6.70;1.00;;;;;;2288494;60;1015;-86
2023/03/07 03:39:22;235273.00;0.78;406.62;0.00;0.00;0.62;;;;;6.60;1.00;;;;;;2288422;60;1386;-85
2023/03/07 03:41:49;209377.00;0.70;362.06;0.00;0.00;0.62;;;;;6.70;1.00;;;;;;2288954;60;1686;-85
2023/03/07 03:44:16;117129352.00;390.43;65091324.00;0.00;0.00;0.62;;;;;6.70;1.00;;;;;;2289168;60;1089;-85
2023/03/07 03:46:43;242868.00;0.81;419.68;0.00;0.00;0.62;;;;;6.70;1.00;;;;;;2289188;60;1097;-86
2023/03/07 03:49:13;451885.00;1.51;779.02;0.00;0.00;0.62;;;;;6.60;1.00;;;;;;2289046;60;1918;-88
2023/03/07 03:51:39;195077.00;0.65;337.45;0.00;0.00;0.62;;;;;6.70;1.00;;;;;;2289228;60;1067;-89
2023/03/07 03:54:08;258302.00;0.86;446.23;0.00;0.00;0.62;;;;;6.80;1.00;;;;;;2289142;60;1102;-85
2023/03/07 03:56:35;278037.00;0.93;480.16;0.00;0.00;0.62;;;;;6.90;1.00;;;;;;2289126;60;1133;-87
2023/03/07 03:59:02;199705.00;0.67;345.42;0.00;0.00;0.62;;;;;6.90;1.00;;;;;;2289084;60;1369;-85
2023/03/07 04:01:29;179499.00;0.60;310.63;0.00;0.00;0.62;;;;;6.60;1.00;;;;;;2289131;60;1121;-86
2023/03/07 04:03:58;167261.00;0.56;289.55;0.00;0.00;0.62;;;;;6.80;1.00;;;;;;2289112;60;1042;-85
2023/03/07 04:06:27;290401.00;0.97;501.42;0.00;0.00;0.62;;;;;6.70;1.00;;;;;;2289107;60;1156;-86
2023/03/07 04:08:54;248105.00;0.83;428.69;0.00;0.00;0.62;;;;;7.00;1.00;;;;;;2288988;60;1909;-86
2023/03/07 04:11:24;257742.00;0.86;445.27;0.00;0.00;0.62;;;;;7.30;1.00;;;;;;2289055;60;995;-86
2023/03/07 04:13:51;204143.00;0.68;353.05;0.00;0.00;0.62;;;;;7.20;1.00;;;;;;2289098;60;1054;-87
2023/03/07 04:16:18;229583.00;0.77;396.83;0.00;0.00;0.62;;;;;7.30;1.00;;;;;;2289124;60;991;-86
2023/03/07 04:18:46;194393.00;0.65;336.27;0.00;0.00;0.62;;;;;7.50;1.00;;;;;;2288995;60;1367;-87
2023/03/07 04:21:13;288069.00;0.96;497.41;0.00;0.00;0.62;;;;;7.40;1.00;;;;;;2289057;60;1089;-85
2023/03/07 04:23:40;84683.00;0.28;147.13;0.00;0.00;0.62;;;;;7.50;1.00;;;;;;2289065;60;965;-86
2023/03/07 04:26:08;243290.00;0.81;420.41;0.00;0.00;0.62;;;;;7.40;1.00;;;;;;2289077;60;1111;-87
2023/03/07 04:28:45;266204.00;0.89;459.82;0.00;0.00;0.62;;;;;7.20;1.00;;;;;;2289108;60;1035;-87
2023/03/07 04:31:14;221594.00;0.74;383.09;0.00;0.00;0.62;;;;;7.30;1.00;;;;;;2289022;60;1997;-86
2023/03/07 04:33:41;249854.00;0.83;431.70;0.00;0.00;0.62;;;;;7.20;1.00;;;;;;2288959;60;1109;-86
2023/03/07 04:36:08;173108.00;0.58;299.62;0.00;0.00;0.62;;;;;7.30;1.00;;;;;;2288573;60;1130;-86
2023/03/07 04:38:37;615936.00;2.05;1061.74;0.00;0.00;0.62;;;;;7.20;1.00;;;;;;2288785;60;987;-86
2023/03/07 04:41:04;275533.00;0.92;475.86;0.00;0.00;0.62;;;;;6.90;1.00;;;;;;2288922;60;1710;-86
2023/03/07 04:43:31;512681.00;1.71;883.66;89909.00;0.30;156.15;;;;;7.00;1.00;;;;;;2289014;60;1016;-85
2023/03/07 04:46:00;214993.00;0.72;371.73;0.00;0.00;0.62;;;;;7.00;1.00;;;;;;2288977;60;1038;-87
2023/03/07 04:48:27;230457.00;0.77;398.34;0.00;0.00;0.62;;;;;7.00;1.00;;;;;;2288880;60;1168;-86
2023/03/07 04:50:54;204234.00;0.68;353.21;0.00;0.00;0.62;;;;;6.90;1.00;;;;;;2288989;60;1919;-85
2023/03/07 04:53:21;227923.00;0.76;393.98;0.00;0.00;0.62;;;;;6.80;1.00;;;;;;2288778;60;1069;-85
2023/03/07 04:55:48;305089.00;1.02;526.67;0.00;0.00;0.62;;;;;6.80;1.00;;;;;;2289011;60;1059;-85
2023/03/07 04:58:15;380918.00;1.27;657.00;0.00;0.00;0.62;;;;;6.90;1.00;;;;;;2288944;60;1113;-86
2023/03/07 05:00:43;271210.00;0.90;468.42;0.00;0.00;0.62;;;;;7.00;1.00;;;;;;2288946;60;1369;-87
2023/03/07 05:03:13;232838.00;0.78;402.43;0.00;0.00;0.62;;;;;7.10;1.00;;;;;;2288922;60;1552;-87
2023/03/07 05:05:40;155542.00;0.52;269.36;0.00;0.00;0.62;;;;;7.10;1.00;;;;;;2288947;60;1038;-86
2023/03/07 05:08:07;343169.00;1.14;592.12;0.00;0.00;0.62;;;;;7.00;1.00;;;;;;2288927;60;1149;-86
2023/03/07 05:10:36;316184.00;1.05;545.74;0.00;0.00;0.62;;;;;7.10;1.00;;;;;;2288866;60;1994;-86
2023/03/07 05:13:03;390756.00;1.30;673.91;21953.00;0.07;38.65;;;;;6.90;1.00;;;;;;2288826;60;988;-86
2023/03/07 05:15:30;279061.00;0.93;481.92;11969.00;0.04;21.36;;;;;6.80;1.00;;;;;;2288865;60;1039;-86
2023/03/07 05:17:57;205430.00;0.68;355.27;0.00;0.00;0.62;;;;;6.80;1.00;;;;;;2288864;60;1065;-87
2023/03/07 05:20:26;354923.00;1.18;612.32;0.00;0.00;0.62;;;;;6.80;1.00;;;;;;2288858;60;1373;-87
2023/03/07 05:22:53;289642.00;0.97;500.11;0.00;0.00;0.62;;;;;6.90;1.00;;;;;;2288880;60;1083;-87
2023/03/07 05:25:20;388176.00;1.29;669.48;0.00;0.00;0.62;;;;;7.00;1.00;;;;;;2288904;60;1137;-87
2023/03/07 05:27:49;234454.00;0.78;405.21;0.00;0.00;0.62;;;;;7.00;1.00;;;;;;2288863;60;1157;-86
2023/03/07 05:30:17;223112.00;0.74;385.70;0.00;0.00;0.62;;;;;7.10;1.00;;;;;;2288795;60;1914;-87
2023/03/07 05:32:44;529289.00;1.76;912.27;37677.00;0.13;65.87;;;;;7.20;1.00;;;;;;2288787;60;1036;-86
2023/03/07 05:35:12;135761.00;0.45;235.26;0.00;0.00;0.62;;;;;7.10;1.00;;;;;;2288860;60;1077;-87
2023/03/07 05:37:40;344324.00;1.15;594.11;0.00;0.00;0.62;;;;;7.10;1.00;;;;;;2288811;60;1101;-87
2023/03/07 05:40:09;170321.00;0.57;294.82;0.00;0.00;0.62;;;;;7.20;1.00;;;;;;2288738;60;1529;-85
2023/03/07 05:42:36;329670.00;1.10;568.92;15737.00;0.05;27.89;;;;;7.10;1.00;;;;;;2288844;60;1101;-86
2023/03/07 05:45:04;234763.00;0.78;405.74;0.00;0.00;0.62;;;;;7.30;1.00;;;;;;2288793;60;1089;-84
2023/03/07 05:47:31;184253.00;0.61;318.81;0.00;0.00;0.62;;;;;7.20;1.00;;;;;;2288756;60;1109;-85
2023/03/07 05:49:58;237506.00;0.79;410.46;0.00;0.00;0.62;;;;;7.30;1.00;;;;;;2288596;60;1921;-85
2023/03/07 05:52:25;174616.00;0.58;302.22;0.00;0.00;0.62;;;;;7.20;1.00;;;;;;2288775;60;999;-86
2023/03/07 05:54:53;261349.00;0.87;451.47;0.00;0.00;0.62;;;;;7.10;1.00;;;;;;2288765;60;1098;-85
2023/03/07 05:57:20;147649.00;0.49;255.76;0.00;0.00;0.62;;;;;7.20;1.00;;;;;;2288765;60;980;-86
2023/03/07 05:59:47;243599.00;0.81;420.94;0.00;0.00;0.62;;;;;7.20;1.00;;;;;;2288702;60;1386;-85
2023/03/07 06:02:14;344180.00;1.15;593.86;0.00;0.00;0.62;;;;;7.30;1.00;;;;;;2288654;60;2027;-86
2023/03/07 06:04:41;527908.00;1.76;909.89;53041.00;0.18;92.45;;;;;7.50;1.00;;;;;;2288462;60;995;-86
2023/03/07 06:07:08;295025.00;0.98;509.37;0.00;0.00;0.62;;;;;7.50;1.00;;;;;;2288727;60;1054;-85
2023/03/07 06:09:35;120522.00;0.40;208.98;0.00;0.00;0.62;;;;;7.50;1.00;;;;;;2288690;60;1921;-85
2023/03/07 06:12:04;291287.00;0.97;502.94;0.00;0.00;0.62;;;;;7.50;1.00;;;;;;2288769;60;923;-87
2023/03/07 06:14:31;276987.00;0.92;478.36;0.00;0.00;0.62;;;;;7.40;1.00;;;;;;2288803;60;998;-87
2023/03/07 06:16:57;286903.00;0.96;495.41;0.00;0.00;0.62;;;;;7.50;1.00;;;;;;2288720;60;1081;-88
2023/03/07 06:19:24;205290.00;0.68;355.03;0.00;0.00;0.62;;;;;7.20;1.00;;;;;;2288685;60;1284;-87
2023/03/07 06:21:51;297379.00;0.99;513.41;47746.00;0.16;83.29;;;;;7.10;1.00;;;;;;2288720;60;1042;-87
2023/03/07 06:24:18;355972.00;1.19;614.13;46720.00;0.16;81.51;;;;;7.20;1.00;;;;;;2288707;60;1077;-86
2023/03/07 06:26:45;530381.00;1.77;914.15;44656.00;0.15;77.94;;;;;7.50;1.00;;;;;;2288603;60;1054;-85
2023/03/07 06:29:13;205546.00;0.69;355.47;0.00;0.00;0.62;;;;;7.60;1.00;;;;;;2288635;60;1416;-87
2023/03/07 06:31:40;228103.00;0.76;394.29;0.00;0.00;0.62;;;;;7.70;1.00;;;;;;2288583;60;2000;-86
2023/03/07 06:34:07;380366.00;1.27;656.05;53830.00;0.18;93.81;;;;;7.70;1.00;;;;;;2288574;60;1637;-86
2023/03/07 06:36:34;299291.00;1.00;516.70;0.00;0.00;0.62;;;;;7.80;1.00;;;;;;2288654;60;1041;-86
2023/03/07 06:39:01;372054.00;1.24;641.77;0.00;0.00;0.62;;;;;7.80;1.00;;;;;;2288583;60;1363;-87
2023/03/07 06:41:28;181490.00;0.60;314.06;0.00;0.00;0.62;;;;;8.10;1.00;;;;;;2288536;60;1066;-86
2023/03/07 06:43:55;232203.00;0.77;401.34;0.00;0.00;0.62;;;;;8.10;1.00;;;;;;2288613;60;1006;-87
2023/03/07 06:46:23;318077.00;1.06;548.99;0.00;0.00;0.62;;;;;8.10;1.00;;;;;;2288609;60;1007;-86
2023/03/07 06:48:50;256682.00;0.86;443.44;0.00;0.00;0.62;;;;;8.00;1.00;;;;;;2288443;60;1341;-86
2023/03/07 06:51:18;329675.00;1.10;568.93;36503.00;0.12;63.84;;;;;7.90;1.00;;;;;;2288584;60;1987;-85
2023/03/07 06:53:46;96398.00;0.32;167.35;0.00;0.00;0.62;;;;;7.90;1.00;;;;;;2288580;60;1683;-86
2023/03/07 06:56:12;344844.00;1.15;595.00;0.00;0.00;0.62;;;;;8.00;1.00;;;;;;2288537;60;1043;-87
2023/03/07 06:58:39;243546.00;0.81;420.85;0.00;0.00;0.62;;;;;8.10;1.00;;;;;;2288543;60;1351;-86
2023/03/07 07:01:06;153920.00;0.51;266.56;0.00;0.00;0.62;;;;;8.10;1.00;;;;;;2288562;60;1054;-87
2023/03/07 07:03:34;186207.00;0.62;322.18;0.00;0.00;0.62;;;;;8.40;1.00;;;;;;2288533;60;1058;-87
2023/03/07 07:06:02;470908.00;1.57;811.75;48614.00;0.16;84.79;;;;;8.50;1.00;;;;;;2288514;60;992;-87
2023/03/07 07:08:29;155988.00;0.52;270.13;0.00;0.00;0.62;;;;;8.50;1.00;;;;;;2288568;60;1168;-87
2023/03/07 07:10:58;295116.00;0.98;509.52;0.00;0.00;0.62;;;;;8.70;1.00;;;;;;2288451;60;1919;-86
2023/03/07 07:13:25;199291.00;0.66;344.70;0.00;0.00;0.62;;;;;8.90;1.00;;;;;;2288485;60;1101;-87
2023/03/07 07:15:52;238013.00;0.79;411.33;5309.00;0.02;9.82;;;;;8.80;1.00;;;;;;2288339;60;1034;-86
2023/03/07 07:18:19;116981032.00;389.94;64844144.00;0.00;0.00;0.62;;;;;8.70;1.00;;;;;;2288471;60;989;-86
2023/03/07 07:20:54;347012.00;1.16;598.73;0.00;0.00;0.62;;;;;8.70;1.00;;;;;;2288518;60;1273;-85
2023/03/07 07:23:20;327656.00;1.09;565.46;31400.00;0.10;55.01;;;;;8.70;1.00;;;;;;2288445;60;1029;-85
2023/03/07 07:25:47;369897.00;1.23;638.06;0.00;0.00;0.62;;;;;8.30;1.00;;;;;;2288463;60;1100;-86
2023/03/07 07:28:14;267947.00;0.89;462.81;0.00;0.00;0.62;;;;;8.40;1.00;;;;;;2288475;60;1112;-86
2023/03/07 07:30:41;228100.00;0.76;394.28;0.00;0.00;0.62;;;;;8.20;1.00;;;;;;2288451;60;2004;-86
2023/03/07 07:33:08;300892.00;1.00;519.45;23581.00;0.08;41.47;;;;;8.20;1.00;;;;;;2288481;60;1038;-87
2023/03/07 07:35:35;306216.00;1.02;528.61;0.00;0.00;0.62;;;;;8.20;1.00;;;;;;2288422;60;1108;-86
2023/03/07 07:38:04;292638.00;0.98;505.26;8667.00;0.03;15.64;;;;;8.20;1.00;;;;;;2288422;60;1057;-86
2023/03/07 07:40:30;324778.00;1.08;560.51;0.00;0.00;0.62;;;;;8.40;1.00;;;;;;2288409;60;1281;-86
2023/03/07 07:42:57;811020.00;2.70;1400.35;226858.00;0.76;392.14;;;;;8.50;1.00;;;;;;2288431;60;1105;-86
2023/03/07 07:45:25;331083.00;1.10;571.35;0.00;0.00;0.62;;;;;8.70;1.00;;;;;;2288407;60;912;-86
2023/03/07 07:47:52;350068.00;1.17;603.98;0.00;0.00;0.62;;;;;8.80;1.00;;;;;;2288386;60;1008;-87
2023/03/07 07:50:21;229576.00;0.77;396.82;0.00;0.00;0.62;;;;;8.50;1.00;;;;;;2288353;60;2002;-86
2023/03/07 07:52:48;207655.00;0.69;359.10;0.00;0.00;0.62;;;;;8.60;1.00;;;;;;2288471;60;1096;-86
2023/03/07 07:55:17;323422.00;1.08;558.18;0.00;0.00;0.62;;;;;8.70;1.00;;;;;;2288419;60;1004;-86
2023/03/07 07:57:43;279801.00;0.93;483.20;0.00;0.00;0.62;;;;;9.10;1.00;;;;;;2288395;60;1141;-86
2023/03/07 08:00:13;92345.00;0.31;160.36;0.00;0.00;0.62;;;;;9.50;1.00;;;;;;2288245;60;1354;-85
2023/03/07 08:02:40;217836.00;0.73;376.62;0.00;0.00;0.62;;;;;9.90;1.00;;;;;;2288378;60;1186;-85
2023/03/07 08:05:09;126936.00;0.42;220.05;0.00;0.00;0.62;;;;;9.60;1.00;;;;;;2288357;60;996;-86
2023/03/07 08:07:35;175664.00;0.59;304.02;0.00;0.00;0.62;;;;;9.80;1.00;;;;;;2288320;60;1070;-86
2023/03/07 08:10:03;292701.00;0.98;505.37;0.00;0.00;0.62;;;;;9.90;1.00;;;;;;2288171;60;1628;-85
2023/03/07 08:12:31;258423.00;0.86;446.44;0.00;0.00;0.62;;;;;10.00;1.00;;;;;;2288199;60;1989;-85
2023/03/07 08:14:58;308054.00;1.03;531.76;0.00;0.00;0.62;;;;;10.10;1.00;;;;;;2288256;60;1016;-85
2023/03/07 08:17:24;482280.00;1.61;831.32;68744.00;0.23;119.59;;;;;10.00;1.00;;;;;;2288236;60;1017;-85
2023/03/07 08:19:51;169560.00;0.57;293.51;0.00;0.00;0.62;;;;;10.10;1.00;;;;;;2288240;60;1256;-84
2023/03/07 08:22:18;175780.00;0.59;304.22;0.00;0.00;0.62;;;;;10.20;1.00;;;;;;2288248;60;920;-85
2023/03/07 08:24:46;204035.00;0.68;352.87;0.00;0.00;0.62;;;;;10.20;1.00;;;;;;2288248;60;1091;-85
2023/03/07 08:27:13;124245.00;0.41;215.40;0.00;0.00;0.62;;;;;10.40;1.00;;;;;;2288402;60;1123;-88
2023/03/07 08:29:41;109318.00;0.36;189.65;0.00;0.00;0.62;;;;;10.30;1.00;;;;;;2289047;60;1373;-84
2023/03/07 08:32:08;147969.00;0.49;256.31;0.00;0.00;0.62;;;;;10.70;1.00;;;;;;2289012;60;2030;-84
2023/03/07 08:34:35;177640.00;0.59;307.43;0.00;0.00;0.62;;;;;10.60;1.00;;;;;;2289051;60;995;-85
2023/03/07 08:37:02;308659.00;1.03;532.80;0.00;0.00;0.62;;;;;10.20;1.00;;;;;;2289057;60;838;-85
2023/03/07 08:39:29;143343.00;0.48;248.33;0.00;0.00;0.62;;;;;10.10;1.00;;;;;;2288978;60;1304;-86
2023/03/07 08:41:56;251459.00;0.84;434.46;0.00;0.00;0.62;;;;;9.50;1.00;;;;;;2288976;60;1104;-86
2023/03/07 08:44:23;455496.00;1.52;785.24;96164.00;0.32;166.95;;;;;9.70;1.00;;;;;;2288945;60;1132;-86
2023/03/07 08:46:51;235453.00;0.78;406.93;0.00;0.00;0.62;;;;;10.00;1.00;;;;;;2288931;60;2260;-86
2023/03/07 08:49:18;108218.00;0.36;187.76;0.00;0.00;0.62;;;;;10.20;1.00;;;;;;2288893;60;1292;-84
2023/03/07 08:51:47;108135.00;0.36;187.61;0.00;0.00;0.62;;;;;10.50;1.00;;;;;;2288877;60;1985;-85
2023/03/07 08:54:15;189223.00;0.63;327.37;0.00;0.00;0.62;;;;;10.70;1.00;;;;;;2288960;60;1077;-85
2023/03/07 08:56:42;261617.00;0.87;451.93;0.00;0.00;0.62;;;;;10.50;1.00;;;;;;2288925;60;1087;-84
2023/03/07 08:59:08;156419.00;0.52;270.87;0.00;0.00;0.62;;;;;10.50;1.00;;;;;;2288876;60;1307;-85
2023/03/07 09:01:35;98113.00;0.33;170.31;0.00;0.00;0.62;;;;;10.80;1.00;;;;;;2288870;60;1137;-84
2023/03/07 09:04:04;146337.00;0.49;253.49;0.00;0.00;0.62;;;;;10.80;1.00;;;;;;2288893;60;1131;-86
2023/03/07 09:06:31;188941.00;0.63;326.89;0.00;0.00;0.62;;;;;10.30;1.00;;;;;;2288923;60;1101;-85
2023/03/07 09:08:58;313162.00;1.04;540.54;27854.00;0.09;48.87;;;;;10.10;1.00;;;;;;2288927;60;1394;-86
2023/03/07 09:11:25;154711.00;0.52;267.93;0.00;0.00;0.62;;;;;9.80;1.00;;;;;;2288894;60;2000;-86
2023/03/07 09:13:52;92346.00;0.31;160.36;0.00;0.00;0.62;;;;;9.60;1.00;;;;;;2288875;60;1334;-86
2023/03/07 09:16:19;245953.00;0.82;424.99;0.00;0.00;0.62;;;;;10.00;1.00;;;;;;2288912;60;928;-85
2023/03/07 09:18:46;155807.00;0.52;269.81;0.00;0.00;0.62;;;;;10.40;1.00;;;;;;2288847;60;1290;-86
2023/03/07 09:21:15;160498.00;0.53;277.90;0.00;0.00;0.62;;;;;10.50;1.00;;;;;;2288816;60;1603;-86
2023/03/07 09:23:43;192766.00;0.64;333.47;0.00;0.00;0.62;;;;;10.60;1.00;;;;;;2288862;60;1092;-86
2023/03/07 09:26:10;163629.00;0.55;283.29;0.00;0.00;0.62;;;;;10.30;1.00;;;;;;2288916;60;936;-86
2023/03/07 09:28:37;215061.00;0.72;371.84;0.00;0.00;0.62;;;;;9.80;1.00;;;;;;2288869;60;1041;-86
2023/03/07 09:31:07;328056.00;1.09;566.14;0.00;0.00;0.62;;;;;9.60;1.00;;;;;;2288792;60;1989;-85
2023/03/07 09:33:34;139121.00;0.46;241.06;0.00;0.00;0.62;;;;;10.00;1.00;;;;;;2288784;60;1104;-85
2023/03/07 09:36:04;213962.00;0.71;369.95;0.00;0.00;0.62;;;;;10.20;1.00;;;;;;2288845;60;1083;-84
2023/03/07 09:38:33;286087.00;0.95;494.00;31966.00;0.11;55.99;;;;;10.30;1.00;;;;;;2288711;60;964;-85
2023/03/07 09:41:10;120743.00;0.40;209.36;0.00;0.00;0.62;;;;;10.40;1.00;;;;;;2288769;60;1332;-86
2023/03/07 09:43:47;149664.00;0.50;259.23;0.00;0.00;0.62;;;;;10.40;1.00;;;;;;2288826;60;1129;-85
2023/03/07 09:46:27;164599.00;0.55;284.96;0.00;0.00;0.62;;;;;10.40;1.00;;;;;;2288791;60;1024;-86
2023/03/07 09:49:17;157492.00;0.52;272.72;0.00;0.00;0.62;;;;;10.40;1.00;;;;;;2288648;60;1258;-85
2023/03/07 09:51:46;159161.00;0.53;275.59;0.00;0.00;0.62;;;;;10.50;1.00;;;;;;2286648;60;1907;-86
2023/03/07 09:54:19;272930.00;0.91;471.38;0.00;0.00;0.62;;;;;10.50;1.00;;;;;;2288763;60;1032;-85
2023/03/07 09:56:51;113103.00;0.38;196.18;0.00;0.00;0.62;;;;;10.40;1.00;;;;;;2288783;60;1015;-85
2023/03/07 09:59:23;162171.00;0.54;280.78;0.00;0.00;0.62;;;;;10.20;1.00;;;;;;2288632;60;1486;-86
2023/03/07 10:01:53;97724.00;0.33;169.64;0.00;0.00;0.62;;;;;10.20;1.00;;;;;;2288621;60;2138;-85
2023/03/07 10:04:26;158898.00;0.53;275.14;0.00;0.00;0.62;;;;;10.40;1.00;;;;;;2288730;60;930;-85